sensor_id;sensor_type;location;lat;lon;timestamp;pressure;altitude;pressure_sealevel;temperature;humidity
10115;BME280;5097;43.260;27.812;2022-12-29T00:02:05;101374.91;;;2.06;77.56
10115;BME280;5097;43.260;27.812;2022-12-29T00:04:50;101421.06;;;2.47;77.59
10115;BME280;5097;43.260;27.812;2022-12-29T00:07:34;101414.06;;;2.35;78.24
10115;BME280;5097;43.260;27.812;2022-12-29T00:10:18;101421.06;;;2.46;78.18
10115;BME280;5097;43.260;27.812;2022-12-29T00:13:02;101402.78;;;2.37;78.48
10115;BME280;5097;43.260;27.812;2022-12-29T00:16:06;101419.31;;;2.39;78.18
10115;BME280;5097;43.260;27.812;2022-12-29T00:18:50;101427.13;;;2.32;78.03
10115;BME280;5097;43.260;27.812;2022-12-29T00:21:36;101417.53;;;2.17;78.88
10115;BME280;5097;43.260;27.812;2022-12-29T00:24:37;101418.41;;;2.18;79.37
10115;BME280;5097;43.260;27.812;2022-12-29T00:27:38;101414.94;;;2.31;79.30
10115;BME280;5097;43.260;27.812;2022-12-29T00:30:48;101412.34;;;2.25;79.29
10115;BME280;5097;43.260;27.812;2022-12-29T00:33:49;101407.13;;;2.44;78.52
10115;BME280;5097;43.260;27.812;2022-12-29T00:36:52;101413.22;;;2.40;78.71
10115;BME280;5097;43.260;27.812;2022-12-29T00:39:36;101414.97;;;2.41;79.00
10115;BME280;5097;43.260;27.812;2022-12-29T00:42:37;101392.34;;;2.37;78.45
10115;BME280;5097;43.260;27.812;2022-12-29T00:45:40;101413.25;;;2.55;78.62
10115;BME280;5097;43.260;27.812;2022-12-29T00:48:24;101412.38;;;2.47;79.44
10115;BME280;5097;43.260;27.812;2022-12-29T00:51:25;101420.16;;;2.42;79.50
10115;BME280;5097;43.260;27.812;2022-12-29T00:54:11;101418.47;;;2.54;78.79
10115;BME280;5097;43.260;27.812;2022-12-29T00:56:55;101403.66;;;2.57;77.80
10115;BME280;5097;43.260;27.812;2022-12-29T00:59:40;101368.84;;;2.18;78.44
10115;BME280;5097;43.260;27.812;2022-12-29T01:02:24;101394.97;;;2.38;78.46
10115;BME280;5097;43.260;27.812;2022-12-29T01:05:08;101401.94;;;2.38;79.07
10115;BME280;5097;43.260;27.812;2022-12-29T01:07:52;101394.09;;;2.48;78.33
10115;BME280;5097;43.260;27.812;2022-12-29T01:10:38;101379.34;;;2.43;78.55
10115;BME280;5097;43.260;27.812;2022-12-29T01:13:20;101394.97;;;2.55;78.46
10115;BME280;5097;43.260;27.812;2022-12-29T01:16:06;101349.72;;;2.13;78.58
10115;BME280;5097;43.260;27.812;2022-12-29T01:18:50;101212.38;;;1.27;80.50
10115;BME280;5097;43.260;27.812;2022-12-29T01:21:36;101375.00;;;2.48;80.64
10115;BME280;5097;43.260;27.812;2022-12-29T01:24:20;101373.22;;;2.61;79.25
10115;BME280;5097;43.260;27.812;2022-12-29T01:27:05;101366.28;;;2.63;78.69
10115;BME280;5097;43.260;27.812;2022-12-29T01:29:49;101340.19;;;2.47;78.75
10115;BME280;5097;43.260;27.812;2022-12-29T01:32:33;101357.56;;;2.62;79.18
10115;BME280;5097;43.260;27.812;2022-12-29T01:35:17;101361.06;;;2.32;80.21
10115;BME280;5097;43.260;27.812;2022-12-29T01:38:01;101349.75;;;2.50;79.03
10115;BME280;5097;43.260;27.812;2022-12-29T01:40:46;101340.19;;;2.38;79.36
10115;BME280;5097;43.260;27.812;2022-12-29T01:43:41;101324.53;;;2.16;79.48
10115;BME280;5097;43.260;27.812;2022-12-29T01:46:27;101327.16;;;2.21;79.63
10115;BME280;5097;43.260;27.812;2022-12-29T01:49:14;101324.50;;;1.89;81.32
10115;BME280;5097;43.260;27.812;2022-12-29T01:52:03;101262.84;;;1.98;80.79
10115;BME280;5097;43.260;27.812;2022-12-29T01:54:50;101300.22;;;2.34;79.28
10115;BME280;5097;43.260;27.812;2022-12-29T01:57:39;101312.38;;;2.43;79.35
10115;BME280;5097;43.260;27.812;2022-12-29T02:00:26;101293.25;;;2.26;78.60
10115;BME280;5097;43.260;27.812;2022-12-29T02:03:11;101312.38;;;2.46;78.58
10115;BME280;5097;43.260;27.812;2022-12-29T02:05:58;101306.28;;;2.27;79.46
10115;BME280;5097;43.260;27.812;2022-12-29T02:08:46;101293.25;;;2.01;80.22
10115;BME280;5097;43.260;27.812;2022-12-29T02:11:30;101320.19;;;2.26;81.26
10115;BME280;5097;43.260;27.812;2022-12-29T02:14:15;101310.63;;;2.30;79.73
10115;BME280;5097;43.260;27.812;2022-12-29T02:17:08;101313.25;;;2.31;79.61
10115;BME280;5097;43.260;27.812;2022-12-29T02:20:17;101308.91;;;2.13;79.84
10115;BME280;5097;43.260;27.812;2022-12-29T02:23:23;101307.16;;;2.15;79.96
10115;BME280;5097;43.260;27.812;2022-12-29T02:26:27;101301.09;;;2.24;79.38
10115;BME280;5097;43.260;27.812;2022-12-29T02:29:32;101287.19;;;2.19;81.13
10115;BME280;5097;43.260;27.812;2022-12-29T02:32:28;101299.34;;;2.32;80.66
10115;BME280;5097;43.260;27.812;2022-12-29T02:35:25;101290.66;;;2.37;81.74
10115;BME280;5097;43.260;27.812;2022-12-29T02:38:18;101290.63;;;2.49;81.53
10115;BME280;5097;43.260;27.812;2022-12-29T02:41:09;101284.56;;;2.13;80.89
10115;BME280;5097;43.260;27.812;2022-12-29T02:44:01;101286.28;;;2.37;80.46
10115;BME280;5097;43.260;27.812;2022-12-29T02:46:52;101281.97;;;2.25;80.80
10115;BME280;5097;43.260;27.812;2022-12-29T02:49:45;101289.78;;;2.19;82.54
10115;BME280;5097;43.260;27.812;2022-12-29T02:52:35;101269.81;;;2.23;81.61
10115;BME280;5097;43.260;27.812;2022-12-29T02:55:20;101279.34;;;2.38;80.34
10115;BME280;5097;43.260;27.812;2022-12-29T02:58:15;101275.00;;;2.24;81.39
10115;BME280;5097;43.260;27.812;2022-12-29T03:01:12;101235.88;;;1.70;82.02
10115;BME280;5097;43.260;27.812;2022-12-29T03:04:12;101267.19;;;2.12;81.36
10115;BME280;5097;43.260;27.812;2022-12-29T03:07:09;101275.00;;;2.33;81.28
10115;BME280;5097;43.260;27.812;2022-12-29T03:10:01;101248.06;;;1.88;82.07
10115;BME280;5097;43.260;27.812;2022-12-29T03:12:53;101272.41;;;2.32;82.07
10115;BME280;5097;43.260;27.812;2022-12-29T03:16:07;101270.63;;;1.97;82.19
10115;BME280;5097;43.260;27.812;2022-12-29T03:18:58;101276.75;;;2.25;82.89
10115;BME280;5097;43.260;27.812;2022-12-29T03:21:47;101268.94;;;2.25;81.62
10115;BME280;5097;43.260;27.812;2022-12-29T03:24:59;101295.00;;;2.25;81.57
10115;BME280;5097;43.260;27.812;2022-12-29T03:27:49;101296.72;;;2.35;81.86
10115;BME280;5097;43.260;27.812;2022-12-29T03:30:35;101290.63;;;2.30;82.56
10115;BME280;5097;43.260;27.812;2022-12-29T03:33:23;101295.84;;;2.06;83.62
10115;BME280;5097;43.260;27.812;2022-12-29T03:36:20;101297.59;;;1.94;84.09
10115;BME280;5097;43.260;27.812;2022-12-29T03:39:09;101302.75;;;1.73;85.44
10115;BME280;5097;43.260;27.812;2022-12-29T03:41:58;101256.69;;;1.44;86.95
10115;BME280;5097;43.260;27.812;2022-12-29T03:44:45;101279.31;;;1.93;86.34
10115;BME280;5097;43.260;27.812;2022-12-29T03:47:31;101301.06;;;2.27;85.37
10115;BME280;5097;43.260;27.812;2022-12-29T03:50:15;101308.00;;;2.53;84.90
10115;BME280;5097;43.260;27.812;2022-12-29T03:52:59;101288.06;;;2.41;84.73
10115;BME280;5097;43.260;27.812;2022-12-29T03:55:43;101301.09;;;2.52;84.25
10115;BME280;5097;43.260;27.812;2022-12-29T03:58:29;101277.59;;;2.57;84.12
10115;BME280;5097;43.260;27.812;2022-12-29T04:01:19;101293.22;;;2.50;84.16
10115;BME280;5097;43.260;27.812;2022-12-29T04:04:03;101301.03;;;2.60;84.90
10115;BME280;5097;43.260;27.812;2022-12-29T04:06:48;101314.97;;;2.45;84.43
10115;BME280;5097;43.260;27.812;2022-12-29T04:09:32;101309.75;;;2.45;84.29
10115;BME280;5097;43.260;27.812;2022-12-29T04:12:17;101309.75;;;2.35;85.05
10115;BME280;5097;43.260;27.812;2022-12-29T04:15:03;101317.59;;;2.60;84.62
10115;BME280;5097;43.260;27.812;2022-12-29T04:17:48;101257.63;;;2.26;85.35
10115;BME280;5097;43.260;27.812;2022-12-29T04:20:32;101273.25;;;2.48;84.91
10115;BME280;5097;43.260;27.812;2022-12-29T04:23:38;101321.91;;;2.81;85.05
10115;BME280;5097;43.260;27.812;2022-12-29T04:26:24;101314.94;;;2.88;84.11
10115;BME280;5097;43.260;27.812;2022-12-29T04:29:22;101308.91;;;2.63;84.48
10115;BME280;5097;43.260;27.812;2022-12-29T04:32:26;101307.13;;;2.79;84.22
10115;BME280;5097;43.260;27.812;2022-12-29T04:35:11;101316.72;;;2.64;85.32
10115;BME280;5097;43.260;27.812;2022-12-29T04:37:54;101311.50;;;2.64;86.13
10115;BME280;5097;43.260;27.812;2022-12-29T04:40:39;101299.28;;;2.66;85.34
10115;BME280;5097;43.260;27.812;2022-12-29T04:43:24;101318.41;;;2.81;85.38
10115;BME280;5097;43.260;27.812;2022-12-29T04:46:31;101325.38;;;2.91;84.82
10115;BME280;5097;43.260;27.812;2022-12-29T04:49:21;101326.25;;;2.95;84.36
10115;BME280;5097;43.260;27.812;2022-12-29T04:52:22;101288.00;;;2.69;84.35
10115;BME280;5097;43.260;27.812;2022-12-29T04:55:07;101319.34;;;2.63;84.79
10115;BME280;5097;43.260;27.812;2022-12-29T04:57:51;101282.81;;;2.47;84.65
10115;BME280;5097;43.260;27.812;2022-12-29T05:00:35;101312.38;;;2.59;85.15
10115;BME280;5097;43.260;27.812;2022-12-29T05:03:19;101317.59;;;2.70;85.00
10115;BME280;5097;43.260;27.812;2022-12-29T05:06:06;101308.03;;;2.56;85.58
10115;BME280;5097;43.260;27.812;2022-12-29T05:08:50;101321.94;;;2.55;85.33
10115;BME280;5097;43.260;27.812;2022-12-29T05:11:35;101324.53;;;2.50;84.96
10115;BME280;5097;43.260;27.812;2022-12-29T05:14:18;101323.66;;;2.72;84.26
10115;BME280;5097;43.260;27.812;2022-12-29T05:17:02;101315.84;;;2.65;84.83
10115;BME280;5097;43.260;27.812;2022-12-29T05:19:46;101288.03;;;2.46;85.15
10115;BME280;5097;43.260;27.812;2022-12-29T05:22:31;101281.94;;;2.53;84.34
10115;BME280;5097;43.260;27.812;2022-12-29T05:25:17;101301.06;;;2.71;83.78
10115;BME280;5097;43.260;27.812;2022-12-29T05:28:11;101315.81;;;2.84;83.46
10115;BME280;5097;43.260;27.812;2022-12-29T05:31:00;101321.94;;;2.55;83.76
10115;BME280;5097;43.260;27.812;2022-12-29T05:33:45;101294.13;;;2.51;83.57
10115;BME280;5097;43.260;27.812;2022-12-29T05:36:29;101320.22;;;2.49;84.99
10115;BME280;5097;43.260;27.812;2022-12-29T05:39:22;101316.72;;;2.30;84.28
10115;BME280;5097;43.260;27.812;2022-12-29T05:42:10;101315.00;;;2.29;85.56
10115;BME280;5097;43.260;27.812;2022-12-29T05:45:29;101319.34;;;2.46;85.04
10115;BME280;5097;43.260;27.812;2022-12-29T05:48:26;101316.75;;;2.21;86.39
10115;BME280;5097;43.260;27.812;2022-12-29T05:51:39;101324.56;;;2.43;85.56
10115;BME280;5097;43.260;27.812;2022-12-29T05:54:24;101298.47;;;2.49;84.76
10115;BME280;5097;43.260;27.812;2022-12-29T05:57:08;101320.22;;;2.59;84.83
10115;BME280;5097;43.260;27.812;2022-12-29T05:59:53;101317.59;;;2.62;84.80
10115;BME280;5097;43.260;27.812;2022-12-29T06:02:37;101319.31;;;2.58;84.86
10115;BME280;5097;43.260;27.812;2022-12-29T06:05:22;101324.53;;;2.72;84.78
10115;BME280;5097;43.260;27.812;2022-12-29T06:08:06;101323.63;;;2.73;84.43
10115;BME280;5097;43.260;27.812;2022-12-29T06:10:51;101317.56;;;2.77;84.10
10115;BME280;5097;43.260;27.812;2022-12-29T06:13:35;101325.38;;;2.90;83.75
10115;BME280;5097;43.260;27.812;2022-12-29T06:16:19;101290.56;;;2.89;83.88
10115;BME280;5097;43.260;27.812;2022-12-29T06:19:05;101326.19;;;3.15;83.30
10115;BME280;5097;43.260;27.812;2022-12-29T06:21:50;101319.19;;;3.20;83.78
10115;BME280;5097;43.260;27.812;2022-12-29T06:24:35;101287.94;;;2.89;83.51
10115;BME280;5097;43.260;27.812;2022-12-29T06:27:20;101278.34;;;3.00;83.21
10115;BME280;5097;43.260;27.812;2022-12-29T06:30:07;101323.50;;;3.35;83.35
10115;BME280;5097;43.260;27.812;2022-12-29T06:32:54;101329.50;;;3.49;82.87
10115;BME280;5097;43.260;27.812;2022-12-29T06:35:39;101319.91;;;3.59;83.19
10115;BME280;5097;43.260;27.812;2022-12-29T06:38:23;101321.56;;;3.69;82.70
10115;BME280;5097;43.260;27.812;2022-12-29T06:41:07;101318.91;;;3.79;82.67
10115;BME280;5097;43.260;27.812;2022-12-29T06:44:11;101312.75;;;3.89;83.08
10115;BME280;5097;43.260;27.812;2022-12-29T06:47:04;101321.38;;;4.00;83.13
10115;BME280;5097;43.260;27.812;2022-12-29T06:49:48;101314.22;;;4.27;82.61
10115;BME280;5097;43.260;27.812;2022-12-29T06:52:32;101261.13;;;4.16;82.15
10115;BME280;5097;43.260;27.812;2022-12-29T06:55:16;101303.56;;;4.52;81.93
10115;BME280;5097;43.260;27.812;2022-12-29T06:58:00;101307.78;;;4.67;81.97
10115;BME280;5097;43.260;27.812;2022-12-29T07:00:46;101306.78;;;4.79;81.64
10115;BME280;5097;43.260;27.812;2022-12-29T07:03:30;101275.38;;;4.77;82.20
10115;BME280;5097;43.260;27.812;2022-12-29T07:06:14;101309.03;;;5.13;81.97
10115;BME280;5097;43.260;27.812;2022-12-29T07:08:59;101301.81;;;5.30;81.32
10115;BME280;5097;43.260;27.812;2022-12-29T07:11:43;101305.13;;;5.46;80.94
10115;BME280;5097;43.260;27.812;2022-12-29T07:14:26;101313.66;;;5.62;81.02
10115;BME280;5097;43.260;27.812;2022-12-29T07:17:12;101291.94;;;5.54;80.52
10115;BME280;5097;43.260;27.812;2022-12-29T07:19:56;101316.84;;;5.84;80.41
10115;BME280;5097;43.260;27.812;2022-12-29T07:22:39;101319.31;;;5.95;79.85
10115;BME280;5097;43.260;27.812;2022-12-29T07:25:23;101287.91;;;5.92;79.49
10115;BME280;5097;43.260;27.812;2022-12-29T07:28:07;101283.44;;;5.97;79.25
10115;BME280;5097;43.260;27.812;2022-12-29T07:30:51;101324.09;;;6.28;77.80
10115;BME280;5097;43.260;27.812;2022-12-29T07:33:36;101304.88;;;6.27;78.84
10115;BME280;5097;43.260;27.812;2022-12-29T07:36:20;101315.91;;;6.46;78.60
10115;BME280;5097;43.260;27.812;2022-12-29T07:39:04;101328.03;;;6.55;77.98
10115;BME280;5097;43.260;27.812;2022-12-29T07:41:48;101326.97;;;6.65;77.46
10115;BME280;5097;43.260;27.812;2022-12-29T07:44:34;101316.28;;;6.75;76.99
10115;BME280;5097;43.260;27.812;2022-12-29T07:47:33;101325.81;;;6.82;76.88
10115;BME280;5097;43.260;27.812;2022-12-29T07:50:18;101284.16;;;6.60;76.35
10115;BME280;5097;43.260;27.812;2022-12-29T07:53:03;101330.81;;;6.96;75.86
10115;BME280;5097;43.260;27.812;2022-12-29T07:55:47;101312.78;;;6.76;75.37
10115;BME280;5097;43.260;27.812;2022-12-29T07:58:31;101285.66;;;6.74;75.05
10115;BME280;5097;43.260;27.812;2022-12-29T08:01:15;101320.97;;;7.05;74.92
10115;BME280;5097;43.260;27.812;2022-12-29T08:03:59;101283.78;;;6.80;73.92
10115;BME280;5097;43.260;27.812;2022-12-29T08:06:45;101280.97;;;6.93;74.20
10115;BME280;5097;43.260;27.812;2022-12-29T08:09:29;101324.09;;;7.26;73.86
10115;BME280;5097;43.260;27.812;2022-12-29T08:12:13;101319.59;;;7.31;74.17
10115;BME280;5097;43.260;27.812;2022-12-29T08:14:57;101321.97;;;7.44;73.39
10115;BME280;5097;43.260;27.812;2022-12-29T08:17:41;101321.06;;;7.46;72.94
10115;BME280;5097;43.260;27.812;2022-12-29T08:20:25;101322.69;;;7.52;72.70
10115;BME280;5097;43.260;27.812;2022-12-29T08:23:10;101301.41;;;7.20;73.35
10115;BME280;5097;43.260;27.812;2022-12-29T08:25:57;101328.03;;;7.49;73.16
10115;BME280;5097;43.260;27.812;2022-12-29T08:28:41;101303.44;;;7.50;71.94
10115;BME280;5097;43.260;27.812;2022-12-29T08:31:25;101329.34;;;7.68;72.02
10115;BME280;5097;43.260;27.812;2022-12-29T08:34:08;101317.88;;;7.71;71.89
10115;BME280;5097;43.260;27.812;2022-12-29T08:36:52;101306.72;;;7.61;71.69
10115;BME280;5097;43.260;27.812;2022-12-29T08:39:38;101302.94;;;7.71;72.14
10115;BME280;5097;43.260;27.812;2022-12-29T08:42:21;101308.97;;;7.77;71.31
10115;BME280;5097;43.260;27.812;2022-12-29T08:45:06;101313.72;;;7.61;71.98
10115;BME280;5097;43.260;27.812;2022-12-29T08:47:51;101263.94;;;7.51;72.04
10115;BME280;5097;43.260;27.812;2022-12-29T08:50:35;101303.16;;;8.01;71.48
10115;BME280;5097;43.260;27.812;2022-12-29T08:53:19;101291.81;;;7.99;71.30
10115;BME280;5097;43.260;27.812;2022-12-29T08:56:05;101306.44;;;8.11;70.79
10115;BME280;5097;43.260;27.812;2022-12-29T08:58:58;101299.66;;;8.02;70.82
10115;BME280;5097;43.260;27.812;2022-12-29T09:01:45;101292.13;;;8.23;76.61
10115;BME280;5097;43.260;27.812;2022-12-29T09:04:28;101292.44;;;8.47;71.45
10115;BME280;5097;43.260;27.812;2022-12-29T09:07:13;101289.88;;;8.42;70.10
10115;BME280;5097;43.260;27.812;2022-12-29T09:09:56;101270.91;;;8.29;68.78
10115;BME280;5097;43.260;27.812;2022-12-29T09:12:41;101296.78;;;8.48;68.12
10115;BME280;5097;43.260;27.812;2022-12-29T09:15:25;101176.44;;;7.84;68.34
10115;BME280;5097;43.260;27.812;2022-12-29T09:18:10;101258.31;;;8.41;69.26
10115;BME280;5097;43.260;27.812;2022-12-29T09:21:04;101284.69;;;8.39;68.58
10115;BME280;5097;43.260;27.812;2022-12-29T09:23:49;101286.47;;;8.38;67.85
10115;BME280;5097;43.260;27.812;2022-12-29T09:26:33;101278.19;;;8.54;67.90
10115;BME280;5097;43.260;27.812;2022-12-29T09:29:18;101284.06;;;8.65;68.88
10115;BME280;5097;43.260;27.812;2022-12-29T09:32:02;101282.50;;;8.58;67.61
10115;BME280;5097;43.260;27.812;2022-12-29T09:34:49;101288.47;;;8.65;68.73
10115;BME280;5097;43.260;27.812;2022-12-29T09:37:33;101279.13;;;8.86;67.72
10115;BME280;5097;43.260;27.812;2022-12-29T09:40:24;101278.28;;;9.15;67.02
10115;BME280;5097;43.260;27.812;2022-12-29T09:43:31;101267.56;;;9.21;66.86
10115;BME280;5097;43.260;27.812;2022-12-29T09:46:24;101260.78;;;9.13;67.39
10115;BME280;5097;43.260;27.812;2022-12-29T09:49:18;101221.25;;;8.83;66.55
10115;BME280;5097;43.260;27.812;2022-12-29T09:52:06;101253.78;;;9.12;67.45
10115;BME280;5097;43.260;27.812;2022-12-29T09:54:56;101254.09;;;9.32;66.64
10115;BME280;5097;43.260;27.812;2022-12-29T09:57:49;101225.88;;;9.04;68.40
10115;BME280;5097;43.260;27.812;2022-12-29T10:00:38;101242.53;;;9.36;67.15
10115;BME280;5097;43.260;27.812;2022-12-29T10:03:35;101235.69;;;9.59;65.35
10115;BME280;5097;43.260;27.812;2022-12-29T10:06:23;101247.19;;;9.56;66.49
10115;BME280;5097;43.260;27.812;2022-12-29T10:09:15;101240.59;;;9.42;65.69
10115;BME280;5097;43.260;27.812;2022-12-29T10:12:13;101216.78;;;9.45;64.81
10115;BME280;5097;43.260;27.812;2022-12-29T10:15:05;101233.78;;;9.63;65.74
10115;BME280;5097;43.260;27.812;2022-12-29T10:18:03;101230.00;;;9.71;65.24
10115;BME280;5097;43.260;27.812;2022-12-29T10:20:56;101227.88;;;9.83;65.00
10115;BME280;5097;43.260;27.812;2022-12-29T10:23:44;101220.19;;;10.03;64.27
10115;BME280;5097;43.260;27.812;2022-12-29T10:26:33;101199.41;;;9.66;64.60
10115;BME280;5097;43.260;27.812;2022-12-29T10:29:20;101193.78;;;10.03;63.85
10115;BME280;5097;43.260;27.812;2022-12-29T10:32:09;101204.44;;;10.00;64.45
10115;BME280;5097;43.260;27.812;2022-12-29T10:35:00;101207.09;;;10.26;62.81
10115;BME280;5097;43.260;27.812;2022-12-29T10:37:53;101212.63;;;10.18;63.32
10115;BME280;5097;43.260;27.812;2022-12-29T10:40:45;101200.81;;;10.30;62.43
10115;BME280;5097;43.260;27.812;2022-12-29T10:43:35;101199.84;;;10.32;62.85
10115;BME280;5097;43.260;27.812;2022-12-29T10:46:27;101200.00;;;10.28;63.00
10115;BME280;5097;43.260;27.812;2022-12-29T10:49:16;101198.84;;;10.36;61.91
10115;BME280;5097;43.260;27.812;2022-12-29T10:52:04;101198.50;;;10.46;62.53
10115;BME280;5097;43.260;27.812;2022-12-29T10:54:53;101192.06;;;10.54;60.79
10115;BME280;5097;43.260;27.812;2022-12-29T10:57:41;101158.78;;;10.49;61.14
10115;BME280;5097;43.260;27.812;2022-12-29T11:00:27;101187.94;;;10.46;60.90
10115;BME280;5097;43.260;27.812;2022-12-29T11:03:34;101188.00;;;10.44;61.58
10115;BME280;5097;43.260;27.812;2022-12-29T11:06:22;101185.25;;;10.47;61.18
10115;BME280;5097;43.260;27.812;2022-12-29T11:09:11;101191.22;;;10.52;60.79
10115;BME280;5097;43.260;27.812;2022-12-29T11:11:58;101149.53;;;10.37;61.04
10115;BME280;5097;43.260;27.812;2022-12-29T11:14:42;101174.50;;;10.77;60.27
10115;BME280;5097;43.260;27.812;2022-12-29T11:17:25;101153.69;;;10.68;60.41
10115;BME280;5097;43.260;27.812;2022-12-29T11:20:30;101181.22;;;10.62;60.49
10115;BME280;5097;43.260;27.812;2022-12-29T11:23:24;101181.09;;;10.65;59.98
10115;BME280;5097;43.260;27.812;2022-12-29T11:26:20;101176.56;;;10.69;59.76
10115;BME280;5097;43.260;27.812;2022-12-29T11:29:21;101179.84;;;10.76;59.63
10115;BME280;5097;43.260;27.812;2022-12-29T11:32:11;101172.19;;;10.68;60.41
10115;BME280;5097;43.260;27.812;2022-12-29T11:34:56;101138.47;;;10.51;60.16
10115;BME280;5097;43.260;27.812;2022-12-29T11:37:41;101165.06;;;10.70;59.86
10115;BME280;5097;43.260;27.812;2022-12-29T11:40:25;101123.50;;;10.24;60.78
10115;BME280;5097;43.260;27.812;2022-12-29T11:43:25;101148.81;;;10.57;60.01
10115;BME280;5097;43.260;27.812;2022-12-29T11:46:15;101163.81;;;10.80;60.26
10115;BME280;5097;43.260;27.812;2022-12-29T11:49:01;101148.78;;;10.81;59.15
10115;BME280;5097;43.260;27.812;2022-12-29T11:51:47;101162.94;;;10.80;59.77
10115;BME280;5097;43.260;27.812;2022-12-29T11:54:34;101154.41;;;10.73;59.70
10115;BME280;5097;43.260;27.812;2022-12-29T11:57:22;101141.69;;;10.83;59.68
10115;BME280;5097;43.260;27.812;2022-12-29T12:00:15;101148.72;;;11.06;58.80
10115;BME280;5097;43.260;27.812;2022-12-29T12:03:03;101120.53;;;10.83;59.15
10115;BME280;5097;43.260;27.812;2022-12-29T12:05:50;101139.88;;;11.07;58.19
10115;BME280;5097;43.260;27.812;2022-12-29T12:08:41;101133.47;;;11.13;58.40
10115;BME280;5097;43.260;27.812;2022-12-29T12:11:28;101126.09;;;11.21;57.95
10115;BME280;5097;43.260;27.812;2022-12-29T12:14:21;101119.81;;;11.23;57.43
10115;BME280;5097;43.260;27.812;2022-12-29T12:17:31;101123.16;;;11.06;57.66
10115;BME280;5097;43.260;27.812;2022-12-29T12:20:26;100968.88;;;10.41;57.95
10115;BME280;5097;43.260;27.812;2022-12-29T12:23:25;101133.06;;;11.23;57.11
10115;BME280;5097;43.260;27.812;2022-12-29T12:26:14;101121.16;;;11.12;57.84
10115;BME280;5097;43.260;27.812;2022-12-29T12:29:04;101110.84;;;11.50;57.48
10115;BME280;5097;43.260;27.812;2022-12-29T12:31:55;101120.91;;;11.62;56.99
10115;BME280;5097;43.260;27.812;2022-12-29T12:34:42;101113.66;;;11.45;56.72
10115;BME280;5097;43.260;27.812;2022-12-29T12:37:55;101115.22;;;11.51;56.97
10115;BME280;5097;43.260;27.812;2022-12-29T12:41:05;101112.75;;;11.46;56.47
10115;BME280;5097;43.260;27.812;2022-12-29T12:43:57;101120.19;;;11.36;56.84
10115;BME280;5097;43.260;27.812;2022-12-29T12:46:56;101118.41;;;11.37;57.45
10115;BME280;5097;43.260;27.812;2022-12-29T12:53:32;101119.16;;;11.40;57.11
10115;BME280;5097;43.260;27.812;2022-12-29T12:56:44;101119.56;;;11.52;56.49
10115;BME280;5097;43.260;27.812;2022-12-29T12:59:38;101082.13;;;11.40;56.46
10115;BME280;5097;43.260;27.812;2022-12-29T13:02:36;101094.06;;;11.51;56.26
10115;BME280;5097;43.260;27.812;2022-12-29T13:05:40;101076.16;;;11.35;55.76
10115;BME280;5097;43.260;27.812;2022-12-29T13:08:42;101113.50;;;11.50;55.93
10115;BME280;5097;43.260;27.812;2022-12-29T13:11:42;101111.34;;;11.37;56.54
10115;BME280;5097;43.260;27.812;2022-12-29T13:14:41;101112.81;;;11.45;56.69
10115;BME280;5097;43.260;27.812;2022-12-29T13:17:32;101110.31;;;11.42;59.33
10115;BME280;5097;43.260;27.812;2022-12-29T13:20:25;101066.59;;;11.11;58.78
10115;BME280;5097;43.260;27.812;2022-12-29T13:23:16;101099.34;;;11.51;59.28
10115;BME280;5097;43.260;27.812;2022-12-29T13:26:14;101120.19;;;11.36;60.79
10115;BME280;5097;43.260;27.812;2022-12-29T13:29:05;101110.09;;;11.46;60.56
10115;BME280;5097;43.260;27.812;2022-12-29T13:31:59;101104.88;;;11.45;60.73
10115;BME280;5097;43.260;27.812;2022-12-29T13:34:51;101121.06;;;11.37;61.50
10115;BME280;5097;43.260;27.812;2022-12-29T13:37:43;101121.19;;;11.34;61.74
10115;BME280;5097;43.260;27.812;2022-12-29T13:40:32;101106.53;;;11.03;62.60
10115;BME280;5097;43.260;27.812;2022-12-29T13:43:20;101121.78;;;10.96;63.13
10115;BME280;5097;43.260;27.812;2022-12-29T13:46:09;101118.22;;;10.97;63.68
10115;BME280;5097;43.260;27.812;2022-12-29T13:48:56;101118.59;;;10.88;63.63
10115;BME280;5097;43.260;27.812;2022-12-29T13:51:43;101111.69;;;10.84;64.07
10115;BME280;5097;43.260;27.812;2022-12-29T13:54:39;101113.66;;;10.79;64.11
10115;BME280;5097;43.260;27.812;2022-12-29T13:57:35;101103.78;;;10.60;64.37
10115;BME280;5097;43.260;27.812;2022-12-29T14:00:23;101108.47;;;10.52;64.54
10115;BME280;5097;43.260;27.812;2022-12-29T14:03:46;101095.28;;;10.27;64.73
10115;BME280;5097;43.260;27.812;2022-12-29T14:06:34;101102.41;;;9.99;65.57
10115;BME280;5097;43.260;27.812;2022-12-29T14:09:45;101119.44;;;10.16;64.49
10115;BME280;5097;43.260;27.812;2022-12-29T14:12:36;101117.69;;;10.15;64.65
10115;BME280;5097;43.260;27.812;2022-12-29T14:15:25;101110.19;;;9.77;66.23
10115;BME280;5097;43.260;27.812;2022-12-29T14:18:13;101119.59;;;9.86;65.73
10115;BME280;5097;43.260;27.812;2022-12-29T14:20:59;101120.38;;;9.88;65.72
10115;BME280;5097;43.260;27.812;2022-12-29T14:23:47;101118.94;;;9.79;65.81
10115;BME280;5097;43.260;27.812;2022-12-29T14:26:35;101127.91;;;9.73;66.24
10115;BME280;5097;43.260;27.812;2022-12-29T14:29:44;101119.50;;;9.62;66.74
10115;BME280;5097;43.260;27.812;2022-12-29T14:32:39;101109.91;;;9.60;66.35
10115;BME280;5097;43.260;27.812;2022-12-29T14:35:39;101099.81;;;9.46;66.54
10115;BME280;5097;43.260;27.812;2022-12-29T14:38:25;101115.91;;;9.38;67.00
10115;BME280;5097;43.260;27.812;2022-12-29T14:41:22;101118.16;;;9.22;68.02
10115;BME280;5097;43.260;27.812;2022-12-29T14:44:17;101113.13;;;9.14;67.94
10115;BME280;5097;43.260;27.812;2022-12-29T14:47:05;101113.56;;;9.00;68.10
10115;BME280;5097;43.260;27.812;2022-12-29T14:49:54;101114.75;;;8.60;68.67
10115;BME280;5097;43.260;27.812;2022-12-29T14:52:45;101096.78;;;8.12;69.68
10115;BME280;5097;43.260;27.812;2022-12-29T14:55:38;101089.69;;;8.14;70.82
10115;BME280;5097;43.260;27.812;2022-12-29T14:58:26;101127.91;;;7.94;70.98
10115;BME280;5097;43.260;27.812;2022-12-29T15:01:18;101090.28;;;7.21;73.29